sensor_id;sensor_type;location;lat;lon;timestamp;P1;durP1;ratioP1;P2;durP2;ratioP2
64857;SDS011;51335;51.148;6.950;2023-08-30T00:00:13;9.63;;;7.18;;
64857;SDS011;51335;51.148;6.950;2023-08-30T00:00:43;9.75;;;7.60;;
64857;SDS011;51335;51.148;6.950;2023-08-30T00:01:13;12.80;;;8.32;;
64857;SDS011;51335;51.148;6.950;2023-08-30T00:01:44;8.98;;;7.97;;
64857;SDS011;51335;51.148;6.950;2023-08-30T00:02:14;12.07;;;7.80;;
64857;SDS011;51335;51.148;6.950;2023-08-30T00:02:44;9.57;;;8.05;;
64857;SDS011;51335;51.148;6.950;2023-08-30T00:03:15;9.98;;;7.60;;
64857;SDS011;51335;51.148;6.950;2023-08-30T00:03:45;13.52;;;8.45;;
64857;SDS011;51335;51.148;6.950;2023-08-30T00:04:15;11.43;;;8.13;;
64857;SDS011;51335;51.148;6.950;2023-08-30T00:04:46;11.57;;;8.48;;
64857;SDS011;51335;51.148;6.950;2023-08-30T00:05:16;13.90;;;8.15;;
64857;SDS011;51335;51.148;6.950;2023-08-30T00:05:46;9.10;;;7.63;;
64857;SDS011;51335;51.148;6.950;2023-08-30T00:06:16;10.25;;;8.70;;
64857;SDS011;51335;51.148;6.950;2023-08-30T00:06:46;10.43;;;8.10;;
64857;SDS011;51335;51.148;6.950;2023-08-30T00:07:17;12.65;;;8.20;;
64857;SDS011;51335;51.148;6.950;2023-08-30T00:07:47;10.38;;;8.00;;
64857;SDS011;51335;51.148;6.950;2023-08-30T00:08:17;12.18;;;8.30;;
64857;SDS011;51335;51.148;6.950;2023-08-30T00:08:47;11.90;;;7.90;;
64857;SDS011;51335;51.148;6.950;2023-08-30T00:09:18;13.98;;;8.45;;
64857;SDS011;51335;51.148;6.950;2023-08-30T00:09:48;11.90;;;8.40;;
64857;SDS011;51335;51.148;6.950;2023-08-30T00:10:18;10.38;;;7.65;;
64857;SDS011;51335;51.148;6.950;2023-08-30T00:10:48;15.45;;;8.40;;
64857;SDS011;51335;51.148;6.950;2023-08-30T00:11:19;10.80;;;7.40;;
64857;SDS011;51335;51.148;6.950;2023-08-30T00:11:49;11.52;;;7.28;;
64857;SDS011;51335;51.148;6.950;2023-08-30T00:12:19;11.80;;;7.15;;
64857;SDS011;51335;51.148;6.950;2023-08-30T00:12:50;13.13;;;7.10;;
64857;SDS011;51335;51.148;6.950;2023-08-30T00:13:20;9.38;;;7.25;;
64857;SDS011;51335;51.148;6.950;2023-08-30T00:13:50;9.93;;;7.40;;
64857;SDS011;51335;51.148;6.950;2023-08-30T00:14:20;9.68;;;7.47;;
64857;SDS011;51335;51.148;6.950;2023-08-30T00:14:51;9.48;;;7.15;;
64857;SDS011;51335;51.148;6.950;2023-08-30T00:15:21;12.05;;;8.15;;
64857;SDS011;51335;51.148;6.950;2023-08-30T00:15:52;10.43;;;7.47;;
64857;SDS011;51335;51.148;6.950;2023-08-30T00:16:22;13.80;;;8.93;;
64857;SDS011;51335;51.148;6.950;2023-08-30T00:16:52;13.15;;;8.93;;
64857;SDS011;51335;51.148;6.950;2023-08-30T00:17:23;10.90;;;8.55;;
64857;SDS011;51335;51.148;6.950;2023-08-30T00:17:53;12.75;;;8.63;;
64857;SDS011;51335;51.148;6.950;2023-08-30T00:18:23;12.00;;;9.10;;
64857;SDS011;51335;51.148;6.950;2023-08-30T00:18:53;13.15;;;9.70;;
64857;SDS011;51335;51.148;6.950;2023-08-30T00:19:24;14.23;;;9.02;;
64857;SDS011;51335;51.148;6.950;2023-08-30T00:19:54;11.65;;;9.15;;
64857;SDS011;51335;51.148;6.950;2023-08-30T00:20:24;14.50;;;9.10;;
64857;SDS011;51335;51.148;6.950;2023-08-30T00:20:55;12.48;;;10.02;;
64857;SDS011;51335;51.148;6.950;2023-08-30T00:21:25;12.52;;;8.93;;
64857;SDS011;51335;51.148;6.950;2023-08-30T00:21:55;15.40;;;9.60;;
64857;SDS011;51335;51.148;6.950;2023-08-30T00:22:26;12.82;;;9.52;;
64857;SDS011;51335;51.148;6.950;2023-08-30T00:22:56;16.30;;;9.35;;
64857;SDS011;51335;51.148;6.950;2023-08-30T00:23:26;10.80;;;8.55;;
64857;SDS011;51335;51.148;6.950;2023-08-30T00:23:57;15.75;;;8.85;;
64857;SDS011;51335;51.148;6.950;2023-08-30T00:24:28;12.90;;;9.10;;
64857;SDS011;51335;51.148;6.950;2023-08-30T00:24:58;10.85;;;8.35;;
64857;SDS011;51335;51.148;6.950;2023-08-30T00:25:28;10.45;;;7.88;;
64857;SDS011;51335;51.148;6.950;2023-08-30T00:25:59;10.43;;;8.30;;
64857;SDS011;51335;51.148;6.950;2023-08-30T00:26:29;11.02;;;8.07;;
64857;SDS011;51335;51.148;6.950;2023-08-30T00:27:00;11.90;;;8.27;;
64857;SDS011;51335;51.148;6.950;2023-08-30T00:27:31;12.02;;;7.75;;
64857;SDS011;51335;51.148;6.950;2023-08-30T00:28:02;12.00;;;7.47;;
64857;SDS011;51335;51.148;6.950;2023-08-30T00:28:32;11.98;;;7.43;;
64857;SDS011;51335;51.148;6.950;2023-08-30T00:29:02;10.45;;;7.22;;
64857;SDS011;51335;51.148;6.950;2023-08-30T00:29:33;10.93;;;6.85;;
64857;SDS011;51335;51.148;6.950;2023-08-30T00:30:03;9.00;;;7.10;;
64857;SDS011;51335;51.148;6.950;2023-08-30T00:30:34;10.02;;;7.47;;
64857;SDS011;51335;51.148;6.950;2023-08-30T00:31:04;9.07;;;7.18;;
64857;SDS011;51335;51.148;6.950;2023-08-30T00:31:34;9.43;;;7.38;;
64857;SDS011;51335;51.148;6.950;2023-08-30T00:32:05;9.65;;;7.22;;
64857;SDS011;51335;51.148;6.950;2023-08-30T00:32:35;13.80;;;8.10;;
64857;SDS011;51335;51.148;6.950;2023-08-30T00:33:05;11.43;;;7.82;;
64857;SDS011;51335;51.148;6.950;2023-08-30T00:33:36;12.80;;;8.52;;
64857;SDS011;51335;51.148;6.950;2023-08-30T00:34:06;13.70;;;8.38;;
64857;SDS011;51335;51.148;6.950;2023-08-30T00:34:36;10.93;;;8.20;;
64857;SDS011;51335;51.148;6.950;2023-08-30T00:35:07;12.00;;;9.15;;
64857;SDS011;51335;51.148;6.950;2023-08-30T00:35:37;11.05;;;9.00;;
64857;SDS011;51335;51.148;6.950;2023-08-30T00:36:07;11.73;;;8.90;;
64857;SDS011;51335;51.148;6.950;2023-08-30T00:36:38;12.15;;;8.57;;
64857;SDS011;51335;51.148;6.950;2023-08-30T00:37:08;12.75;;;9.93;;
64857;SDS011;51335;51.148;6.950;2023-08-30T00:37:39;16.38;;;10.25;;
64857;SDS011;51335;51.148;6.950;2023-08-30T00:38:10;12.18;;;9.98;;
64857;SDS011;51335;51.148;6.950;2023-08-30T00:38:40;13.85;;;10.93;;
64857;SDS011;51335;51.148;6.950;2023-08-30T00:39:10;15.88;;;11.65;;
64857;SDS011;51335;51.148;6.950;2023-08-30T00:39:40;13.98;;;10.85;;
64857;SDS011;51335;51.148;6.950;2023-08-30T00:40:11;15.43;;;12.05;;
64857;SDS011;51335;51.148;6.950;2023-08-30T00:40:42;15.82;;;11.73;;
64857;SDS011;51335;51.148;6.950;2023-08-30T00:41:12;16.88;;;12.68;;
64857;SDS011;51335;51.148;6.950;2023-08-30T00:41:42;17.10;;;12.20;;
64857;SDS011;51335;51.148;6.950;2023-08-30T00:42:12;14.45;;;11.65;;
64857;SDS011;51335;51.148;6.950;2023-08-30T00:42:43;14.75;;;11.30;;
64857;SDS011;51335;51.148;6.950;2023-08-30T00:43:13;16.17;;;11.45;;
64857;SDS011;51335;51.148;6.950;2023-08-30T00:43:43;15.48;;;11.57;;
64857;SDS011;51335;51.148;6.950;2023-08-30T00:44:13;14.95;;;11.65;;
64857;SDS011;51335;51.148;6.950;2023-08-30T00:44:44;14.82;;;11.63;;
64857;SDS011;51335;51.148;6.950;2023-08-30T00:45:14;16.33;;;13.23;;
64857;SDS011;51335;51.148;6.950;2023-08-30T00:45:44;20.15;;;12.98;;
64857;SDS011;51335;51.148;6.950;2023-08-30T00:46:15;14.23;;;12.07;;
64857;SDS011;51335;51.148;6.950;2023-08-30T00:46:45;16.15;;;11.98;;
64857;SDS011;51335;51.148;6.950;2023-08-30T00:47:16;13.73;;;11.70;;
64857;SDS011;51335;51.148;6.950;2023-08-30T00:47:47;16.83;;;12.75;;
64857;SDS011;51335;51.148;6.950;2023-08-30T00:48:17;14.82;;;12.20;;
64857;SDS011;51335;51.148;6.950;2023-08-30T00:48:49;17.45;;;13.23;;
64857;SDS011;51335;51.148;6.950;2023-08-30T00:49:19;19.92;;;12.77;;
64857;SDS011;51335;51.148;6.950;2023-08-30T00:49:50;19.25;;;12.63;;
64857;SDS011;51335;51.148;6.950;2023-08-30T00:50:20;14.88;;;11.90;;
64857;SDS011;51335;51.148;6.950;2023-08-30T00:50:51;15.98;;;12.07;;
64857;SDS011;51335;51.148;6.950;2023-08-30T00:51:21;17.95;;;13.98;;
64857;SDS011;51335;51.148;6.950;2023-08-30T00:51:51;16.00;;;12.82;;
64857;SDS011;51335;51.148;6.950;2023-08-30T00:52:22;15.75;;;12.05;;
64857;SDS011;51335;51.148;6.950;2023-08-30T00:52:52;18.25;;;12.25;;
64857;SDS011;51335;51.148;6.950;2023-08-30T00:53:23;14.32;;;12.38;;
64857;SDS011;51335;51.148;6.950;2023-08-30T00:53:56;15.18;;;12.05;;
64857;SDS011;51335;51.148;6.950;2023-08-30T00:54:29;15.38;;;12.25;;
64857;SDS011;51335;51.148;6.950;2023-08-30T00:54:59;17.27;;;12.57;;
64857;SDS011;51335;51.148;6.950;2023-08-30T00:55:29;17.00;;;12.10;;
64857;SDS011;51335;51.148;6.950;2023-08-30T00:56:00;15.95;;;12.65;;
64857;SDS011;51335;51.148;6.950;2023-08-30T00:56:30;15.60;;;12.32;;
64857;SDS011;51335;51.148;6.950;2023-08-30T00:57:01;18.10;;;13.70;;
64857;SDS011;51335;51.148;6.950;2023-08-30T00:57:32;20.45;;;14.45;;
64857;SDS011;51335;51.148;6.950;2023-08-30T00:58:03;18.25;;;13.80;;
64857;SDS011;51335;51.148;6.950;2023-08-30T00:58:33;16.40;;;13.45;;
64857;SDS011;51335;51.148;6.950;2023-08-30T00:59:04;19.70;;;14.43;;
64857;SDS011;51335;51.148;6.950;2023-08-30T00:59:34;17.45;;;13.75;;
64857;SDS011;51335;51.148;6.950;2023-08-30T01:00:05;20.48;;;13.80;;
64857;SDS011;51335;51.148;6.950;2023-08-30T01:00:36;20.75;;;14.07;;
64857;SDS011;51335;51.148;6.950;2023-08-30T01:01:07;19.65;;;14.45;;
64857;SDS011;51335;51.148;6.950;2023-08-30T01:01:37;19.63;;;14.40;;
64857;SDS011;51335;51.148;6.950;2023-08-30T01:02:08;16.42;;;13.15;;
64857;SDS011;51335;51.148;6.950;2023-08-30T01:02:39;17.40;;;13.77;;
64857;SDS011;51335;51.148;6.950;2023-08-30T01:03:09;19.33;;;13.35;;
64857;SDS011;51335;51.148;6.950;2023-08-30T01:03:39;17.27;;;12.93;;
64857;SDS011;51335;51.148;6.950;2023-08-30T01:04:10;17.00;;;13.23;;
64857;SDS011;51335;51.148;6.950;2023-08-30T01:04:40;19.65;;;13.55;;
64857;SDS011;51335;51.148;6.950;2023-08-30T01:05:10;20.25;;;13.07;;
64857;SDS011;51335;51.148;6.950;2023-08-30T01:05:41;18.58;;;12.95;;
64857;SDS011;51335;51.148;6.950;2023-08-30T01:06:11;16.30;;;13.15;;
64857;SDS011;51335;51.148;6.950;2023-08-30T01:06:41;22.48;;;13.18;;
64857;SDS011;51335;51.148;6.950;2023-08-30T01:07:12;17.35;;;13.32;;
64857;SDS011;51335;51.148;6.950;2023-08-30T01:07:42;19.77;;;13.35;;
64857;SDS011;51335;51.148;6.950;2023-08-30T01:08:12;17.17;;;13.40;;
64857;SDS011;51335;51.148;6.950;2023-08-30T01:08:43;16.85;;;13.60;;
64857;SDS011;51335;51.148;6.950;2023-08-30T01:09:13;18.88;;;12.82;;
64857;SDS011;51335;51.148;6.950;2023-08-30T01:09:45;17.70;;;13.35;;
64857;SDS011;51335;51.148;6.950;2023-08-30T01:10:15;16.50;;;12.82;;
64857;SDS011;51335;51.148;6.950;2023-08-30T01:12:11;15.57;;;11.45;;
64857;SDS011;51335;51.148;6.950;2023-08-30T01:12:48;17.13;;;12.43;;
64857;SDS011;51335;51.148;6.950;2023-08-30T01:13:23;15.27;;;12.32;;
64857;SDS011;51335;51.148;6.950;2023-08-30T01:14:04;16.55;;;12.90;;
64857;SDS011;51335;51.148;6.950;2023-08-30T01:14:40;15.90;;;11.93;;
64857;SDS011;51335;51.148;6.950;2023-08-30T01:15:15;14.15;;;11.40;;
64857;SDS011;51335;51.148;6.950;2023-08-30T01:15:51;15.23;;;11.88;;
64857;SDS011;51335;51.148;6.950;2023-08-30T01:16:24;15.52;;;12.05;;
64857;SDS011;51335;51.148;6.950;2023-08-30T01:16:55;16.48;;;12.45;;
64857;SDS011;51335;51.148;6.950;2023-08-30T01:17:26;14.27;;;12.38;;
64857;SDS011;51335;51.148;6.950;2023-08-30T01:17:58;21.98;;;13.27;;
64857;SDS011;51335;51.148;6.950;2023-08-30T01:18:30;15.75;;;12.73;;
64857;SDS011;51335;51.148;6.950;2023-08-30T01:19:05;15.75;;;11.93;;
64857;SDS011;51335;51.148;6.950;2023-08-30T01:20:00;16.35;;;12.32;;
64857;SDS011;51335;51.148;6.950;2023-08-30T01:20:34;14.45;;;12.07;;
64857;SDS011;51335;51.148;6.950;2023-08-30T01:21:09;14.50;;;11.82;;
64857;SDS011;51335;51.148;6.950;2023-08-30T01:23:46;15.13;;;11.30;;
64857;SDS011;51335;51.148;6.950;2023-08-30T01:25:20;17.75;;;11.50;;
64857;SDS011;51335;51.148;6.950;2023-08-30T01:26:41;15.02;;;11.90;;
64857;SDS011;51335;51.148;6.950;2023-08-30T01:27:20;13.05;;;10.93;;
64857;SDS011;51335;51.148;6.950;2023-08-30T01:27:51;17.60;;;11.63;;
64857;SDS011;51335;51.148;6.950;2023-08-30T01:28:23;13.93;;;11.95;;
64857;SDS011;51335;51.148;6.950;2023-08-30T01:28:56;17.67;;;12.50;;
64857;SDS011;51335;51.148;6.950;2023-08-30T01:29:29;20.65;;;12.95;;
64857;SDS011;51335;51.148;6.950;2023-08-30T01:30:01;13.65;;;11.48;;
64857;SDS011;51335;51.148;6.950;2023-08-30T01:30:32;16.45;;;12.75;;
64857;SDS011;51335;51.148;6.950;2023-08-30T01:31:04;19.45;;;13.48;;
64857;SDS011;51335;51.148;6.950;2023-08-30T01:31:37;15.77;;;12.75;;
64857;SDS011;51335;51.148;6.950;2023-08-30T01:32:09;15.77;;;13.02;;
64857;SDS011;51335;51.148;6.950;2023-08-30T01:32:39;16.48;;;11.77;;
64857;SDS011;51335;51.148;6.950;2023-08-30T01:33:10;17.98;;;13.10;;
64857;SDS011;51335;51.148;6.950;2023-08-30T01:33:43;17.55;;;12.40;;
64857;SDS011;51335;51.148;6.950;2023-08-30T01:34:14;17.73;;;12.73;;
64857;SDS011;51335;51.148;6.950;2023-08-30T01:34:46;16.35;;;12.00;;
64857;SDS011;51335;51.148;6.950;2023-08-30T01:35:17;15.55;;;11.95;;
64857;SDS011;51335;51.148;6.950;2023-08-30T01:35:48;16.77;;;11.52;;
64857;SDS011;51335;51.148;6.950;2023-08-30T01:36:19;16.48;;;12.07;;
64857;SDS011;51335;51.148;6.950;2023-08-30T01:36:50;15.13;;;11.82;;
64857;SDS011;51335;51.148;6.950;2023-08-30T01:37:20;16.80;;;12.02;;
64857;SDS011;51335;51.148;6.950;2023-08-30T01:37:51;15.02;;;11.85;;
64857;SDS011;51335;51.148;6.950;2023-08-30T01:38:22;13.88;;;11.50;;
64857;SDS011;51335;51.148;6.950;2023-08-30T01:38:54;17.85;;;13.00;;
64857;SDS011;51335;51.148;6.950;2023-08-30T01:39:26;16.02;;;11.77;;
64857;SDS011;51335;51.148;6.950;2023-08-30T01:39:57;18.00;;;12.05;;
64857;SDS011;51335;51.148;6.950;2023-08-30T01:40:29;15.45;;;11.77;;
64857;SDS011;51335;51.148;6.950;2023-08-30T01:41:02;17.65;;;11.20;;
64857;SDS011;51335;51.148;6.950;2023-08-30T01:41:33;14.52;;;11.10;;
64857;SDS011;51335;51.148;6.950;2023-08-30T01:42:06;15.60;;;11.02;;
64857;SDS011;51335;51.148;6.950;2023-08-30T01:42:36;18.38;;;12.57;;
64857;SDS011;51335;51.148;6.950;2023-08-30T01:43:08;13.93;;;11.60;;
64857;SDS011;51335;51.148;6.950;2023-08-30T01:43:39;15.05;;;11.90;;
64857;SDS011;51335;51.148;6.950;2023-08-30T01:44:09;16.02;;;11.55;;
64857;SDS011;51335;51.148;6.950;2023-08-30T01:44:41;14.50;;;11.23;;
64857;SDS011;51335;51.148;6.950;2023-08-30T01:45:13;15.20;;;12.43;;
64857;SDS011;51335;51.148;6.950;2023-08-30T01:45:44;14.68;;;11.85;;
64857;SDS011;51335;51.148;6.950;2023-08-30T01:46:15;15.32;;;11.88;;
64857;SDS011;51335;51.148;6.950;2023-08-30T01:46:47;15.73;;;12.00;;
64857;SDS011;51335;51.148;6.950;2023-08-30T01:47:18;15.77;;;12.10;;
64857;SDS011;51335;51.148;6.950;2023-08-30T01:47:49;15.43;;;12.07;;
64857;SDS011;51335;51.148;6.950;2023-08-30T01:48:20;15.38;;;11.73;;
64857;SDS011;51335;51.148;6.950;2023-08-30T01:48:51;17.05;;;11.55;;
64857;SDS011;51335;51.148;6.950;2023-08-30T01:49:22;16.55;;;11.38;;
64857;SDS011;51335;51.148;6.950;2023-08-30T01:49:53;14.80;;;12.05;;
64857;SDS011;51335;51.148;6.950;2023-08-30T01:50:25;15.05;;;12.35;;
64857;SDS011;51335;51.148;6.950;2023-08-30T01:50:56;13.95;;;11.40;;
64857;SDS011;51335;51.148;6.950;2023-08-30T01:51:27;18.00;;;12.57;;
64857;SDS011;51335;51.148;6.950;2023-08-30T01:51:57;15.93;;;12.27;;
64857;SDS011;51335;51.148;6.950;2023-08-30T01:52:29;15.93;;;11.88;;
64857;SDS011;51335;51.148;6.950;2023-08-30T01:53:00;16.80;;;11.55;;
64857;SDS011;51335;51.148;6.950;2023-08-30T01:53:32;14.38;;;11.68;;
64857;SDS011;51335;51.148;6.950;2023-08-30T01:54:04;18.58;;;12.90;;
64857;SDS011;51335;51.148;6.950;2023-08-30T01:54:35;13.93;;;12.43;;
64857;SDS011;51335;51.148;6.950;2023-08-30T01:55:07;14.07;;;11.40;;
64857;SDS011;51335;51.148;6.950;2023-08-30T01:55:40;19.05;;;11.82;;
64857;SDS011;51335;51.148;6.950;2023-08-30T01:56:11;14.43;;;11.68;;
64857;SDS011;51335;51.148;6.950;2023-08-30T01:56:41;16.83;;;12.18;;
64857;SDS011;51335;51.148;6.950;2023-08-30T01:57:11;15.20;;;12.73;;
64857;SDS011;51335;51.148;6.950;2023-08-30T01:57:42;21.52;;;12.88;;
64857;SDS011;51335;51.148;6.950;2023-08-30T01:58:13;15.60;;;12.73;;
64857;SDS011;51335;51.148;6.950;2023-08-30T01:58:43;17.20;;;12.75;;
64857;SDS011;51335;51.148;6.950;2023-08-30T01:59:13;16.30;;;12.45;;
64857;SDS011;51335;51.148;6.950;2023-08-30T01:59:44;18.27;;;12.75;;
64857;SDS011;51335;51.148;6.950;2023-08-30T02:00:14;17.52;;;13.10;;
64857;SDS011;51335;51.148;6.950;2023-08-30T02:00:44;16.20;;;13.57;;
64857;SDS011;51335;51.148;6.950;2023-08-30T02:01:15;17.42;;;13.05;;
64857;SDS011;51335;51.148;6.950;2023-08-30T02:01:45;19.20;;;13.07;;
64857;SDS011;51335;51.148;6.950;2023-08-30T02:02:15;19.98;;;14.02;;
64857;SDS011;51335;51.148;6.950;2023-08-30T02:02:47;22.52;;;14.13;;
64857;SDS011;51335;51.148;6.950;2023-08-30T02:03:18;18.38;;;14.23;;
64857;SDS011;51335;51.148;6.950;2023-08-30T02:03:48;20.77;;;13.88;;
64857;SDS011;51335;51.148;6.950;2023-08-30T02:04:18;19.58;;;14.40;;
64857;SDS011;51335;51.148;6.950;2023-08-30T02:04:49;18.48;;;13.20;;
64857;SDS011;51335;51.148;6.950;2023-08-30T02:05:19;19.13;;;13.57;;
64857;SDS011;51335;51.148;6.950;2023-08-30T02:06:57;18.73;;;13.52;;
64857;SDS011;51335;51.148;6.950;2023-08-30T02:08:50;20.33;;;13.10;;
64857;SDS011;51335;51.148;6.950;2023-08-30T02:10:16;18.85;;;13.30;;
64857;SDS011;51335;51.148;6.950;2023-08-30T02:10:52;18.60;;;13.75;;
64857;SDS011;51335;51.148;6.950;2023-08-30T02:11:27;20.63;;;13.43;;
64857;SDS011;51335;51.148;6.950;2023-08-30T02:12:00;18.98;;;14.65;;
64857;SDS011;51335;51.148;6.950;2023-08-30T02:12:39;24.50;;;14.45;;
64857;SDS011;51335;51.148;6.950;2023-08-30T02:13:21;20.35;;;13.73;;
64857;SDS011;51335;51.148;6.950;2023-08-30T02:13:57;18.70;;;14.35;;
64857;SDS011;51335;51.148;6.950;2023-08-30T02:14:28;18.67;;;15.27;;
64857;SDS011;51335;51.148;6.950;2023-08-30T02:14:58;19.98;;;15.35;;
64857;SDS011;51335;51.148;6.950;2023-08-30T02:15:32;19.23;;;15.02;;
64857;SDS011;51335;51.148;6.950;2023-08-30T02:16:03;22.58;;;15.43;;
64857;SDS011;51335;51.148;6.950;2023-08-30T02:16:34;21.27;;;15.82;;
64857;SDS011;51335;51.148;6.950;2023-08-30T02:17:06;21.55;;;15.57;;
64857;SDS011;51335;51.148;6.950;2023-08-30T02:17:38;20.00;;;15.82;;
64857;SDS011;51335;51.148;6.950;2023-08-30T02:18:08;20.50;;;15.27;;
64857;SDS011;51335;51.148;6.950;2023-08-30T02:18:40;21.77;;;16.73;;
64857;SDS011;51335;51.148;6.950;2023-08-30T02:19:11;22.90;;;16.30;;
64857;SDS011;51335;51.148;6.950;2023-08-30T02:19:42;26.88;;;17.75;;
64857;SDS011;51335;51.148;6.950;2023-08-30T02:20:14;23.42;;;16.75;;
64857;SDS011;51335;51.148;6.950;2023-08-30T02:20:45;28.08;;;17.65;;
64857;SDS011;51335;51.148;6.950;2023-08-30T02:21:15;21.10;;;16.02;;
64857;SDS011;51335;51.148;6.950;2023-08-30T02:21:46;24.08;;;16.52;;
64857;SDS011;51335;51.148;6.950;2023-08-30T02:22:17;22.73;;;16.58;;
64857;SDS011;51335;51.148;6.950;2023-08-30T02:22:47;25.00;;;18.20;;
64857;SDS011;51335;51.148;6.950;2023-08-30T02:23:17;28.40;;;18.52;;
64857;SDS011;51335;51.148;6.950;2023-08-30T02:23:50;24.27;;;16.95;;
64857;SDS011;51335;51.148;6.950;2023-08-30T02:24:21;24.60;;;17.38;;
64857;SDS011;51335;51.148;6.950;2023-08-30T02:24:51;24.20;;;17.88;;
64857;SDS011;51335;51.148;6.950;2023-08-30T02:25:21;25.27;;;17.95;;
64857;SDS011;51335;51.148;6.950;2023-08-30T02:25:53;24.33;;;16.13;;
64857;SDS011;51335;51.148;6.950;2023-08-30T02:26:24;24.35;;;16.17;;
64857;SDS011;51335;51.148;6.950;2023-08-30T02:26:54;22.80;;;16.33;;
64857;SDS011;51335;51.148;6.950;2023-08-30T02:27:24;25.67;;;17.75;;
64857;SDS011;51335;51.148;6.950;2023-08-30T02:27:55;23.73;;;15.52;;
64857;SDS011;51335;51.148;6.950;2023-08-30T02:28:25;20.33;;;16.50;;
64857;SDS011;51335;51.148;6.950;2023-08-30T02:28:55;21.27;;;16.20;;
64857;SDS011;51335;51.148;6.950;2023-08-30T02:29:25;25.48;;;17.98;;
64857;SDS011;51335;51.148;6.950;2023-08-30T02:29:56;22.52;;;16.77;;
64857;SDS011;51335;51.148;6.950;2023-08-30T02:30:26;25.58;;;17.35;;
64857;SDS011;51335;51.148;6.950;2023-08-30T02:30:56;22.48;;;16.52;;
64857;SDS011;51335;51.148;6.950;2023-08-30T02:31:26;19.20;;;15.98;;
64857;SDS011;51335;51.148;6.950;2023-08-30T02:31:57;22.55;;;16.95;;
64857;SDS011;51335;51.148;6.950;2023-08-30T02:32:27;21.70;;;16.27;;
64857;SDS011;51335;51.148;6.950;2023-08-30T02:32:57;19.95;;;15.10;;
64857;SDS011;51335;51.148;6.950;2023-08-30T02:33:28;22.45;;;15.98;;
64857;SDS011;51335;51.148;6.950;2023-08-30T02:33:58;19.40;;;15.50;;
64857;SDS011;51335;51.148;6.950;2023-08-30T02:34:28;20.80;;;16.30;;
64857;SDS011;51335;51.148;6.950;2023-08-30T02:34:58;24.58;;;16.88;;
64857;SDS011;51335;51.148;6.950;2023-08-30T02:35:29;21.90;;;16.55;;
64857;SDS011;51335;51.148;6.950;2023-08-30T02:35:59;22.73;;;16.98;;
64857;SDS011;51335;51.148;6.950;2023-08-30T02:36:29;21.77;;;16.52;;
64857;SDS011;51335;51.148;6.950;2023-08-30T02:36:59;23.90;;;16.90;;
64857;SDS011;51335;51.148;6.950;2023-08-30T02:37:30;20.80;;;15.90;;
64857;SDS011;51335;51.148;6.950;2023-08-30T02:38:00;22.08;;;16.05;;
64857;SDS011;51335;51.148;6.950;2023-08-30T02:38:30;20.58;;;16.88;;
64857;SDS011;51335;51.148;6.950;2023-08-30T02:39:00;22.08;;;16.15;;
64857;SDS011;51335;51.148;6.950;2023-08-30T02:39:31;21.80;;;16.50;;
64857;SDS011;51335;51.148;6.950;2023-08-30T02:40:02;20.42;;;16.15;;
64857;SDS011;51335;51.148;6.950;2023-08-30T02:40:32;23.02;;;16.70;;
64857;SDS011;51335;51.148;6.950;2023-08-30T02:41:02;24.05;;;16.73;;
64857;SDS011;51335;51.148;6.950;2023-08-30T02:41:33;22.17;;;15.32;;
64857;SDS011;51335;51.148;6.950;2023-08-30T02:42:03;19.77;;;15.80;;
64857;SDS011;51335;51.148;6.950;2023-08-30T02:42:33;19.67;;;15.70;;
64857;SDS011;51335;51.148;6.950;2023-08-30T02:43:04;22.30;;;15.85;;
64857;SDS011;51335;51.148;6.950;2023-08-30T02:43:34;19.40;;;15.38;;
64857;SDS011;51335;51.148;6.950;2023-08-30T02:44:04;20.70;;;15.38;;
64857;SDS011;51335;51.148;6.950;2023-08-30T02:44:34;20.63;;;15.10;;
64857;SDS011;51335;51.148;6.950;2023-08-30T02:45:05;17.90;;;14.93;;
64857;SDS011;51335;51.148;6.950;2023-08-30T02:45:36;20.60;;;15.05;;
64857;SDS011;51335;51.148;6.950;2023-08-30T02:46:06;19.20;;;14.43;;
64857;SDS011;51335;51.148;6.950;2023-08-30T02:46:36;21.02;;;14.60;;
64857;SDS011;51335;51.148;6.950;2023-08-30T02:47:06;19.52;;;15.43;;
64857;SDS011;51335;51.148;6.950;2023-08-30T02:47:37;19.33;;;14.48;;
64857;SDS011;51335;51.148;6.950;2023-08-30T02:48:07;18.35;;;14.05;;
64857;SDS011;51335;51.148;6.950;2023-08-30T02:48:37;18.98;;;15.07;;
64857;SDS011;51335;51.148;6.950;2023-08-30T02:49:07;21.58;;;14.90;;
64857;SDS011;51335;51.148;6.950;2023-08-30T02:49:38;20.67;;;14.43;;
64857;SDS011;51335;51.148;6.950;2023-08-30T02:50:08;17.55;;;13.95;;
64857;SDS011;51335;51.148;6.950;2023-08-30T02:50:39;20.42;;;14.98;;
64857;SDS011;51335;51.148;6.950;2023-08-30T02:51:09;20.40;;;14.40;;
64857;SDS011;51335;51.148;6.950;2023-08-30T02:51:39;20.83;;;14.48;;
64857;SDS011;51335;51.148;6.950;2023-08-30T02:52:09;24.98;;;15.57;;
64857;SDS011;51335;51.148;6.950;2023-08-30T02:52:40;20.88;;;15.70;;
64857;SDS011;51335;51.148;6.950;2023-08-30T02:53:10;18.63;;;14.77;;
64857;SDS011;51335;51.148;6.950;2023-08-30T02:53:40;19.23;;;15.00;;
64857;SDS011;51335;51.148;6.950;2023-08-30T02:54:11;19.40;;;14.77;;
64857;SDS011;51335;51.148;6.950;2023-08-30T02:54:41;23.55;;;15.95;;
64857;SDS011;51335;51.148;6.950;2023-08-30T02:55:11;18.45;;;14.02;;
64857;SDS011;51335;51.148;6.950;2023-08-30T02:55:41;20.45;;;14.27;;
64857;SDS011;51335;51.148;6.950;2023-08-30T02:56:12;22.48;;;14.88;;
64857;SDS011;51335;51.148;6.950;2023-08-30T02:56:43;19.67;;;14.73;;
64857;SDS011;51335;51.148;6.950;2023-08-30T02:57:14;20.52;;;15.30;;
64857;SDS011;51335;51.148;6.950;2023-08-30T02:57:44;27.52;;;16.92;;
64857;SDS011;51335;51.148;6.950;2023-08-30T02:58:14;20.60;;;14.52;;
64857;SDS011;51335;51.148;6.950;2023-08-30T02:58:45;20.38;;;15.07;;
64857;SDS011;51335;51.148;6.950;2023-08-30T02:59:15;19.40;;;15.23;;
64857;SDS011;51335;51.148;6.950;2023-08-30T02:59:45;26.08;;;15.90;;
64857;SDS011;51335;51.148;6.950;2023-08-30T03:00:16;27.15;;;17.13;;
64857;SDS011;51335;51.148;6.950;2023-08-30T03:00:46;23.67;;;16.63;;
64857;SDS011;51335;51.148;6.950;2023-08-30T03:01:16;25.38;;;17.67;;
64857;SDS011;51335;51.148;6.950;2023-08-30T03:01:47;24.58;;;17.65;;
64857;SDS011;51335;51.148;6.950;2023-08-30T03:02:17;27.05;;;18.52;;
64857;SDS011;51335;51.148;6.950;2023-08-30T03:02:47;34.35;;;21.73;;
64857;SDS011;51335;51.148;6.950;2023-08-30T03:03:18;29.92;;;19.70;;
64857;SDS011;51335;51.148;6.950;2023-08-30T03:03:48;30.58;;;20.40;;
64857;SDS011;51335;51.148;6.950;2023-08-30T03:04:18;30.27;;;20.55;;
64857;SDS011;51335;51.148;6.950;2023-08-30T03:04:48;36.53;;;22.02;;
64857;SDS011;51335;51.148;6.950;2023-08-30T03:05:19;31.70;;;20.35;;
64857;SDS011;51335;51.148;6.950;2023-08-30T03:05:49;27.73;;;19.90;;
64857;SDS011;51335;51.148;6.950;2023-08-30T03:06:19;28.98;;;20.50;;
64857;SDS011;51335;51.148;6.950;2023-08-30T03:06:50;29.08;;;20.45;;
64857;SDS011;51335;51.148;6.950;2023-08-30T03:07:20;29.33;;;19.80;;
64857;SDS011;51335;51.148;6.950;2023-08-30T03:07:50;32.17;;;21.00;;
64857;SDS011;51335;51.148;6.950;2023-08-30T03:08:20;29.65;;;19.85;;
64857;SDS011;51335;51.148;6.950;2023-08-30T03:08:51;33.97;;;21.20;;
64857;SDS011;51335;51.148;6.950;2023-08-30T03:09:23;30.20;;;20.20;;
64857;SDS011;51335;51.148;6.950;2023-08-30T03:09:53;33.63;;;22.05;;
64857;SDS011;51335;51.148;6.950;2023-08-30T03:10:24;33.70;;;22.40;;
64857;SDS011;51335;51.148;6.950;2023-08-30T03:10:54;36.42;;;22.40;;